createdAt,value
2024-05-09T00:01:11.115Z,17.33
2024-05-09T00:02:11.079Z,17.29
2024-05-09T00:03:12.549Z,17.26
2024-05-09T00:04:11.107Z,17.21
2024-05-09T00:05:12.147Z,17.17
2024-05-09T00:06:11.126Z,17.16
2024-05-09T00:07:11.069Z,17.15
2024-05-09T00:08:11.399Z,17.09
2024-05-09T00:09:11.066Z,17.09
2024-05-09T00:10:17.865Z,17.06
2024-05-09T00:11:13.567Z,16.99
2024-05-09T00:12:11.174Z,16.93
2024-05-09T00:13:11.485Z,16.86
2024-05-09T00:14:11.126Z,16.87
2024-05-09T00:15:11.069Z,16.81
2024-05-09T00:16:11.066Z,16.81
2024-05-09T00:17:11.143Z,16.83
2024-05-09T00:18:11.322Z,16.78
2024-05-09T00:19:11.418Z,16.74
2024-05-09T00:20:17.706Z,16.72
2024-05-09T00:21:13.372Z,16.73
2024-05-09T00:22:11.067Z,16.67
2024-05-09T00:23:13.001Z,16.67
2024-05-09T00:24:11.069Z,16.65
2024-05-09T00:25:11.097Z,16.65
2024-05-09T00:26:11.131Z,16.63
2024-05-09T00:27:13.256Z,16.63
2024-05-09T00:28:11.086Z,16.59
2024-05-09T00:29:11.149Z,16.52
2024-05-09T00:30:17.468Z,16.49
2024-05-09T00:31:13.200Z,16.46
2024-05-09T00:32:11.260Z,16.43
2024-05-09T00:33:11.891Z,16.40
2024-05-09T00:34:11.252Z,16.39
2024-05-09T00:35:11.115Z,16.38
2024-05-09T00:36:11.078Z,16.35
2024-05-09T00:37:11.073Z,16.32
2024-05-09T00:38:11.116Z,16.29
2024-05-09T00:39:11.079Z,16.28
2024-05-09T00:40:15.331Z,16.25
2024-05-09T00:41:14.589Z,16.22
2024-05-09T00:42:11.081Z,16.19
2024-05-09T00:43:11.731Z,16.18
2024-05-09T00:44:11.110Z,16.17
2024-05-09T00:45:11.086Z,16.16
2024-05-09T00:46:11.090Z,16.14
2024-05-09T00:47:11.228Z,16.12
2024-05-09T00:48:13.291Z,16.11
2024-05-09T00:49:11.214Z,16.06
2024-05-09T00:50:15.983Z,16.05
2024-05-09T00:51:13.313Z,16.04
2024-05-09T00:52:11.080Z,15.99
2024-05-09T00:53:12.221Z,15.95
2024-05-09T00:54:11.125Z,15.94
2024-05-09T00:55:11.114Z,15.94
2024-05-09T00:56:11.149Z,15.92
2024-05-09T00:57:11.093Z,15.92
2024-05-09T00:58:12.150Z,15.91
2024-05-09T00:59:11.127Z,15.87
2024-05-09T01:00:22.096Z,15.80
2024-05-09T01:01:13.210Z,15.81
2024-05-09T01:02:11.204Z,15.83
2024-05-09T01:03:13.239Z,15.83
2024-05-09T01:04:11.523Z,15.81
2024-05-09T01:05:11.347Z,15.81
2024-05-09T01:06:11.084Z,15.79
2024-05-09T01:07:11.133Z,15.77
2024-05-09T01:08:11.268Z,15.76
2024-05-09T01:09:11.135Z,15.73
2024-05-09T01:10:17.053Z,15.72
2024-05-09T01:11:13.138Z,15.68
2024-05-09T01:12:11.422Z,15.67
2024-05-09T01:13:11.191Z,15.67
2024-05-09T01:14:11.220Z,15.67
2024-05-09T01:15:11.090Z,15.64
2024-05-09T01:16:11.190Z,15.60
2024-05-09T01:17:11.215Z,15.62
2024-05-09T01:18:13.562Z,15.59
2024-05-09T01:19:19.291Z,15.60
2024-05-09T01:20:19.707Z,15.61
2024-05-09T01:21:15.271Z,15.60
2024-05-09T01:22:11.169Z,15.58
2024-05-09T01:23:11.598Z,15.56
2024-05-09T01:24:11.149Z,15.55
2024-05-09T01:25:11.148Z,15.54
2024-05-09T01:26:11.202Z,15.54
2024-05-09T01:27:11.154Z,15.56
2024-05-09T01:28:11.195Z,15.50
2024-05-09T01:29:11.224Z,15.47
2024-05-09T01:30:17.193Z,15.48
2024-05-09T01:31:13.156Z,15.47
2024-05-09T01:32:11.319Z,15.46
2024-05-09T01:33:12.439Z,15.43
2024-05-09T01:34:11.298Z,15.38
2024-05-09T01:35:11.185Z,15.38
2024-05-09T01:36:11.207Z,15.37
2024-05-09T01:37:11.128Z,15.31
2024-05-09T01:38:11.227Z,15.29
2024-05-09T01:39:11.161Z,15.27
2024-05-09T01:40:15.049Z,15.23
2024-05-09T01:41:13.312Z,15.21
2024-05-09T01:42:11.211Z,15.16
2024-05-09T01:43:12.114Z,15.13
2024-05-09T01:44:11.181Z,15.12
2024-05-09T01:45:11.173Z,15.08
2024-05-09T01:46:15.091Z,15.02
2024-05-09T01:47:11.325Z,15.04
2024-05-09T01:48:11.715Z,14.98
2024-05-09T01:49:11.286Z,15.00
2024-05-09T01:50:11.506Z,14.97
2024-05-09T01:51:11.486Z,14.97
2024-05-09T01:52:11.204Z,14.95
2024-05-09T01:53:11.358Z,14.98
2024-05-09T01:54:11.190Z,14.98
2024-05-09T01:55:11.170Z,14.95
2024-05-09T01:56:11.359Z,14.95
2024-05-09T01:57:11.199Z,14.96
2024-05-09T01:58:11.208Z,14.97
2024-05-09T01:59:11.160Z,14.98
2024-05-09T02:00:15.573Z,14.98
2024-05-09T02:01:11.291Z,14.99
2024-05-09T02:02:11.369Z,14.99
2024-05-09T02:03:15.805Z,15.00
2024-05-09T02:04:11.344Z,15.01
2024-05-09T02:05:11.200Z,15.00
2024-05-09T02:06:11.563Z,14.99
2024-05-09T02:07:11.201Z,15.02
2024-05-09T02:08:13.163Z,15.01
2024-05-09T02:09:11.091Z,15.00
2024-05-09T02:10:16.645Z,14.99
2024-05-09T02:11:14.574Z,14.98
2024-05-09T02:12:11.337Z,14.99
2024-05-09T02:13:11.273Z,15.02
2024-05-09T02:14:11.178Z,15.02
2024-05-09T02:15:11.093Z,15.03
2024-05-09T02:16:13.093Z,15.02
2024-05-09T02:17:11.245Z,15.03
2024-05-09T02:18:11.480Z,15.02
2024-05-09T02:19:11.377Z,14.98
2024-05-09T02:21:11.174Z,15.00
2024-05-09T02:22:11.218Z,14.99
2024-05-09T02:23:11.312Z,14.97
2024-05-09T02:24:11.157Z,14.98
2024-05-09T02:25:11.198Z,14.98
2024-05-09T02:26:11.278Z,14.98
2024-05-09T02:27:11.092Z,15.00
2024-05-09T02:28:11.096Z,15.01
2024-05-09T02:29:11.132Z,15.01
2024-05-09T02:30:18.631Z,14.93
2024-05-09T02:31:15.277Z,14.90
2024-05-09T02:32:11.198Z,14.89
2024-05-09T02:33:14.008Z,14.90
2024-05-09T02:34:11.187Z,14.86
2024-05-09T02:35:11.177Z,14.85
2024-05-09T02:36:11.091Z,14.86
2024-05-09T02:37:11.093Z,14.87
2024-05-09T02:38:11.293Z,14.85
2024-05-09T02:39:11.107Z,14.88
2024-05-09T02:40:14.751Z,14.86
2024-05-09T02:41:13.363Z,14.80
2024-05-09T02:42:11.090Z,14.76
2024-05-09T02:43:11.801Z,14.81
2024-05-09T02:44:11.143Z,14.85
2024-05-09T02:45:11.094Z,14.86
2024-05-09T02:46:11.103Z,14.88
2024-05-09T02:47:11.157Z,14.90
2024-05-09T02:48:14.034Z,14.91
2024-05-09T02:49:11.308Z,14.94
2024-05-09T02:50:16.116Z,14.95
2024-05-09T02:51:13.223Z,14.95
2024-05-09T02:52:11.091Z,14.97
2024-05-09T02:53:11.195Z,14.96
2024-05-09T02:54:11.093Z,14.91
2024-05-09T02:55:11.094Z,14.90
2024-05-09T02:56:11.126Z,14.84
2024-05-09T02:57:11.080Z,14.86
2024-05-09T02:58:11.128Z,14.86
2024-05-09T02:59:11.085Z,14.87
2024-05-09T03:00:18.490Z,14.87
2024-05-09T03:01:13.102Z,14.80
2024-05-09T03:02:11.188Z,14.81
2024-05-09T03:03:13.364Z,14.79
2024-05-09T03:04:11.160Z,14.81
2024-05-09T03:05:11.078Z,14.79
2024-05-09T03:06:11.067Z,14.73
2024-05-09T03:07:11.090Z,14.71
2024-05-09T03:08:11.225Z,14.71
2024-05-09T03:09:12.065Z,14.71
2024-05-09T03:10:18.349Z,14.66
2024-05-09T03:11:13.216Z,14.62
2024-05-09T03:12:11.152Z,14.64
2024-05-09T03:13:11.065Z,14.63
2024-05-09T03:14:11.120Z,14.60
2024-05-09T03:15:11.070Z,14.59
2024-05-09T03:16:11.062Z,14.60
2024-05-09T03:17:11.139Z,14.58
2024-05-09T03:18:11.608Z,14.60
2024-05-09T03:19:11.158Z,14.55
2024-05-09T03:20:20.002Z,14.54
2024-05-09T03:21:13.076Z,14.57
2024-05-09T03:22:11.068Z,14.55
2024-05-09T03:23:11.099Z,14.55
2024-05-09T03:24:11.087Z,14.51
2024-05-09T03:25:11.067Z,14.46
2024-05-09T03:26:13.118Z,14.43
2024-05-09T03:27:11.075Z,14.42
2024-05-09T03:28:11.075Z,14.40
2024-05-09T03:29:11.105Z,14.32
2024-05-09T03:30:15.511Z,14.30
2024-05-09T03:31:13.042Z,14.27
2024-05-09T03:32:11.130Z,14.27
2024-05-09T03:33:14.146Z,14.22
2024-05-09T03:34:11.209Z,14.23
2024-05-09T03:35:11.156Z,14.24
2024-05-09T03:36:11.526Z,14.24
2024-05-09T03:37:11.084Z,14.26
2024-05-09T03:38:11.257Z,14.25
2024-05-09T03:39:12.116Z,14.24
2024-05-09T03:40:14.708Z,14.25
2024-05-09T03:41:13.068Z,14.25
2024-05-09T03:42:11.076Z,14.27
2024-05-09T03:43:11.079Z,14.27
2024-05-09T03:44:11.131Z,14.29
2024-05-09T03:45:11.076Z,14.29
2024-05-09T03:46:11.079Z,14.28
2024-05-09T03:47:11.115Z,14.27
2024-05-09T03:48:11.404Z,14.28
2024-05-09T03:49:11.147Z,14.27
2024-05-09T03:50:18.306Z,14.18
2024-05-09T03:51:13.608Z,14.17
2024-05-09T03:52:11.075Z,14.17
2024-05-09T03:53:13.218Z,14.15
2024-05-09T03:54:11.074Z,14.18
2024-05-09T03:55:11.077Z,14.16
2024-05-09T03:56:11.121Z,14.08
2024-05-09T03:57:11.080Z,14.02
2024-05-09T03:58:11.076Z,14.02
2024-05-09T03:59:11.106Z,14.03
2024-05-09T04:00:17.678Z,14.00
2024-05-09T04:01:13.334Z,13.99
2024-05-09T04:02:11.178Z,13.98
2024-05-09T04:03:12.747Z,13.97
2024-05-09T04:04:11.117Z,13.96
2024-05-09T04:05:11.155Z,13.96
2024-05-09T04:06:11.076Z,13.96
2024-05-09T04:07:11.076Z,13.96
2024-05-09T04:08:11.568Z,13.96
2024-05-09T04:09:11.076Z,13.94
2024-05-09T04:10:17.135Z,13.96
2024-05-09T04:11:13.561Z,13.95
2024-05-09T04:12:11.152Z,13.94
2024-05-09T04:13:11.166Z,13.94
2024-05-09T04:14:11.114Z,13.92
2024-05-09T04:15:13.247Z,13.93
2024-05-09T04:16:11.079Z,13.93
2024-05-09T04:17:11.122Z,13.92
2024-05-09T04:18:11.240Z,13.92
2024-05-09T04:19:11.144Z,13.90
2024-05-09T04:20:21.065Z,13.84
2024-05-09T04:21:13.322Z,13.79
2024-05-09T04:22:11.083Z,13.78
2024-05-09T04:23:13.792Z,13.76
2024-05-09T04:24:11.100Z,13.77
2024-05-09T04:25:11.076Z,13.77
2024-05-09T04:26:11.122Z,13.71
2024-05-09T04:27:11.101Z,13.71
2024-05-09T04:28:11.087Z,13.71
2024-05-09T04:29:11.120Z,13.70
2024-05-09T04:30:18.448Z,13.70
2024-05-09T04:31:13.312Z,13.69
2024-05-09T04:32:11.202Z,13.70
2024-05-09T04:33:13.155Z,13.71
2024-05-09T04:34:11.187Z,13.70
2024-05-09T04:35:11.185Z,13.71
2024-05-09T04:36:11.084Z,13.71
2024-05-09T04:37:11.075Z,13.70
2024-05-09T04:38:11.183Z,13.72
2024-05-09T04:39:11.083Z,13.70
2024-05-09T04:40:17.214Z,13.70
2024-05-09T04:41:13.346Z,13.70
2024-05-09T04:42:11.079Z,13.71
2024-05-09T04:43:15.077Z,13.73
2024-05-09T04:44:11.128Z,13.74
2024-05-09T04:45:11.094Z,13.73
2024-05-09T04:46:11.093Z,13.74
2024-05-09T04:47:11.186Z,13.74
2024-05-09T04:48:11.389Z,13.73
2024-05-09T04:49:11.272Z,13.72
2024-05-09T04:50:14.567Z,13.73
2024-05-09T04:51:13.357Z,13.73
2024-05-09T04:52:11.078Z,13.73
2024-05-09T04:53:14.103Z,13.73
2024-05-09T04:54:22.107Z,13.75
2024-05-09T04:55:13.196Z,13.75
2024-05-09T04:56:11.106Z,13.78
2024-05-09T04:57:11.092Z,13.80
2024-05-09T04:58:11.084Z,13.79
2024-05-09T04:59:11.172Z,13.81
2024-05-09T05:00:14.788Z,13.80
2024-05-09T05:01:13.336Z,13.81
2024-05-09T05:02:11.196Z,13.83
2024-05-09T05:03:13.615Z,13.85
2024-05-09T05:04:11.131Z,13.87
2024-05-09T05:05:12.006Z,13.85
2024-05-09T05:06:11.135Z,13.83
2024-05-09T05:07:11.085Z,13.81
2024-05-09T05:08:17.156Z,13.81
2024-05-09T05:09:11.085Z,13.76
2024-05-09T05:10:15.050Z,13.76
2024-05-09T05:11:13.508Z,13.81
2024-05-09T05:12:15.259Z,13.87
2024-05-09T05:13:15.122Z,13.90
2024-05-09T05:14:11.190Z,13.93
2024-05-09T05:15:11.088Z,13.99
2024-05-09T05:16:11.105Z,14.02
2024-05-09T05:17:11.098Z,14.08
2024-05-09T05:18:11.243Z,14.10
2024-05-09T05:19:14.287Z,14.16
2024-05-09T05:20:17.847Z,14.20
2024-05-09T05:21:13.300Z,14.23
2024-05-09T05:22:11.091Z,14.23
2024-05-09T05:23:12.173Z,14.23
2024-05-09T05:24:11.085Z,14.26
2024-05-09T05:25:11.090Z,14.28
2024-05-09T05:26:11.139Z,14.29
2024-05-09T05:27:11.127Z,14.31
2024-05-09T05:28:11.140Z,14.36
2024-05-09T05:29:11.145Z,14.37
2024-05-09T05:30:17.621Z,14.40
2024-05-09T05:31:13.473Z,14.42
2024-05-09T05:32:11.261Z,14.45
2024-05-09T05:33:13.509Z,14.48
2024-05-09T05:34:11.112Z,14.49
2024-05-09T05:35:11.138Z,14.48
2024-05-09T05:36:11.085Z,14.47
2024-05-09T05:37:11.091Z,14.48
2024-05-09T05:38:11.386Z,14.47
2024-05-09T05:39:11.096Z,14.48
2024-05-09T05:41:11.129Z,14.48
2024-05-09T05:42:11.090Z,14.48
2024-05-09T05:43:15.094Z,14.50
2024-05-09T05:44:11.110Z,14.48
2024-05-09T05:45:11.091Z,14.42
2024-05-09T05:46:11.095Z,14.38
2024-05-09T05:47:11.155Z,14.33
2024-05-09T05:48:11.357Z,14.30
2024-05-09T05:49:11.274Z,14.27
2024-05-09T05:50:20.763Z,14.26
2024-05-09T05:51:13.495Z,14.25
2024-05-09T05:52:12.100Z,14.21
2024-05-09T05:53:11.192Z,14.22
2024-05-09T05:54:11.092Z,14.21
2024-05-09T05:55:11.099Z,14.25
2024-05-09T05:56:11.196Z,14.24
2024-05-09T05:57:11.070Z,14.25
2024-05-09T05:58:11.106Z,14.26
2024-05-09T05:59:12.591Z,14.30
2024-05-09T06:00:17.984Z,14.33
2024-05-09T06:01:13.414Z,14.36
2024-05-09T06:02:11.125Z,14.35
2024-05-09T06:03:11.477Z,14.36
2024-05-09T06:04:11.134Z,14.39
2024-05-09T06:05:11.145Z,14.44
2024-05-09T06:06:11.116Z,14.50
2024-05-09T06:07:11.064Z,14.50
2024-05-09T06:08:11.102Z,14.48
2024-05-09T06:09:11.068Z,14.49
2024-05-09T06:10:17.369Z,14.54
2024-05-09T06:11:13.385Z,14.57
2024-05-09T06:12:11.220Z,14.59
2024-05-09T06:13:11.856Z,14.55
2024-05-09T06:14:11.143Z,14.59
2024-05-09T06:15:11.075Z,14.63
2024-05-09T06:16:11.067Z,14.65
2024-05-09T06:17:11.156Z,14.68
2024-05-09T06:18:12.331Z,14.66
2024-05-09T06:19:11.186Z,14.68
2024-05-09T06:20:16.766Z,14.68
2024-05-09T06:21:13.470Z,14.71
2024-05-09T06:22:11.070Z,14.77
2024-05-09T06:23:11.209Z,14.79
2024-05-09T06:24:11.069Z,14.83
2024-05-09T06:25:11.071Z,14.84
2024-05-09T06:26:11.114Z,14.90
2024-05-09T06:27:11.069Z,14.90
2024-05-09T06:28:11.069Z,14.85
2024-05-09T06:29:11.083Z,14.87
2024-05-09T06:30:21.155Z,14.90
2024-05-09T06:31:13.176Z,14.95
2024-05-09T06:32:11.141Z,14.97
2024-05-09T06:33:13.080Z,15.00
2024-05-09T06:34:11.176Z,15.06
2024-05-09T06:35:11.085Z,15.08
2024-05-09T06:36:11.078Z,15.10
2024-05-09T06:37:11.072Z,15.13
2024-05-09T06:38:11.772Z,15.19
2024-05-09T06:39:11.074Z,15.21
2024-05-09T06:40:12.559Z,15.28
2024-05-09T06:41:11.122Z,15.31
2024-05-09T06:42:11.102Z,15.28
2024-05-09T06:43:17.342Z,15.29
2024-05-09T06:44:11.107Z,15.32
2024-05-09T06:45:11.072Z,15.39
2024-05-09T06:46:11.076Z,15.45
2024-05-09T06:47:11.164Z,15.50
2024-05-09T06:48:11.399Z,15.56
2024-05-09T06:49:12.437Z,15.60
2024-05-09T06:50:16.543Z,15.62
2024-05-09T06:51:13.616Z,15.64
2024-05-09T06:52:11.082Z,15.67
2024-05-09T06:53:11.110Z,15.72
2024-05-09T06:54:11.074Z,15.76
2024-05-09T06:55:11.092Z,15.77
2024-05-09T06:56:11.157Z,15.82
2024-05-09T06:57:11.082Z,15.85
2024-05-09T06:58:11.077Z,15.91
2024-05-09T06:59:11.106Z,15.95
2024-05-09T07:00:15.455Z,15.99
2024-05-09T07:01:13.181Z,16.01
2024-05-09T07:02:11.135Z,16.05
2024-05-09T07:03:17.380Z,16.07
2024-05-09T07:04:11.317Z,16.08
2024-05-09T07:05:11.179Z,16.12
2024-05-09T07:06:11.187Z,16.14
2024-05-09T07:07:12.081Z,16.15
2024-05-09T07:08:11.124Z,16.20
2024-05-09T07:09:11.087Z,16.22
2024-05-09T07:10:17.944Z,16.24
2024-05-09T07:11:13.116Z,16.27
2024-05-09T07:12:11.227Z,16.30
2024-05-09T07:13:13.378Z,16.33
2024-05-09T07:14:11.141Z,16.34
2024-05-09T07:15:11.083Z,16.36
2024-05-09T07:16:11.075Z,16.36
2024-05-09T07:17:11.198Z,16.38
2024-05-09T07:18:13.806Z,16.39
2024-05-09T07:19:11.429Z,16.42
2024-05-09T07:20:16.556Z,16.48
2024-05-09T07:21:13.377Z,16.45
2024-05-09T07:22:11.086Z,16.49
2024-05-09T07:23:13.272Z,16.52
2024-05-09T07:24:11.079Z,16.53
2024-05-09T07:25:11.082Z,16.54
2024-05-09T07:26:11.136Z,16.61
2024-05-09T07:27:11.079Z,16.60
2024-05-09T07:28:17.122Z,16.65
2024-05-09T07:29:11.120Z,16.65
2024-05-09T07:30:13.544Z,16.66
2024-05-09T07:31:13.189Z,16.70
2024-05-09T07:32:11.159Z,16.72
2024-05-09T07:33:14.238Z,16.76
2024-05-09T07:34:11.147Z,16.79
2024-05-09T07:35:11.166Z,16.82
2024-05-09T07:36:11.085Z,16.81
2024-05-09T07:37:16.119Z,16.85
2024-05-09T07:38:11.124Z,16.88
2024-05-09T07:39:11.087Z,16.91
2024-05-09T07:40:14.744Z,16.96
2024-05-09T07:41:13.375Z,16.98
2024-05-09T07:42:11.093Z,17.01
2024-05-09T07:43:11.084Z,17.02
2024-05-09T07:44:11.120Z,17.09
2024-05-09T07:45:29.693Z,17.07
2024-05-09T07:47:14.117Z,17.06
2024-05-09T07:48:28.036Z,17.01
2024-05-09T07:49:44.564Z,17.04
2024-05-09T07:50:55.387Z,17.10
2024-05-09T07:53:29.207Z,17.17
2024-05-09T07:53:37.280Z,17.20
2024-05-09T07:54:13.393Z,17.25
2024-05-09T07:55:11.284Z,17.31
2024-05-09T07:56:12.017Z,17.31
2024-05-09T07:57:11.150Z,17.32
2024-05-09T07:58:11.164Z,17.41
2024-05-09T07:59:11.089Z,17.41
2024-05-09T08:00:14.257Z,17.50
2024-05-09T08:01:11.250Z,17.48
2024-05-09T08:02:11.485Z,17.54
2024-05-09T08:03:11.183Z,17.65
2024-05-09T08:04:11.229Z,17.68
2024-05-09T08:05:11.301Z,17.73
2024-05-09T08:06:11.089Z,17.74
2024-05-09T08:07:11.235Z,17.81
2024-05-09T08:08:11.097Z,17.75
2024-05-09T08:09:16.712Z,17.75
2024-05-09T08:10:18.679Z,17.83
2024-05-09T08:11:13.124Z,17.86
2024-05-09T08:12:12.089Z,17.94
2024-05-09T08:13:11.220Z,17.97
2024-05-09T08:14:11.099Z,17.94
2024-05-09T08:15:11.096Z,18.03
2024-05-09T08:16:11.171Z,18.13
2024-05-09T08:17:11.160Z,18.16
2024-05-09T08:18:11.340Z,18.23
2024-05-09T08:19:11.190Z,18.31
2024-05-09T08:21:11.088Z,18.42
2024-05-09T08:22:11.117Z,18.43
2024-05-09T08:23:11.142Z,18.51
2024-05-09T08:24:11.091Z,18.58
2024-05-09T08:25:13.536Z,18.66
2024-05-09T08:26:11.111Z,18.69
2024-05-09T08:27:11.089Z,18.82
2024-05-09T08:28:11.150Z,18.90
2024-05-09T08:29:11.103Z,18.91
2024-05-09T08:30:18.829Z,18.91
2024-05-09T08:31:13.682Z,18.95
2024-05-09T08:32:11.113Z,19.01
2024-05-09T08:33:11.156Z,19.12
2024-05-09T08:34:11.403Z,19.15
2024-05-09T08:35:11.101Z,19.22
2024-05-09T08:36:11.098Z,19.35
2024-05-09T08:37:15.766Z,19.31
2024-05-09T08:38:13.502Z,19.44
2024-05-09T08:39:11.090Z,19.47
2024-05-09T08:40:16.687Z,19.46
2024-05-09T08:41:14.542Z,19.51
2024-05-09T08:42:13.095Z,19.55
2024-05-09T08:43:12.684Z,19.38
2024-05-09T08:44:11.109Z,19.42
2024-05-09T08:45:12.094Z,19.39
2024-05-09T08:46:11.161Z,19.38
2024-05-09T08:47:12.157Z,19.42
2024-05-09T08:48:11.234Z,19.46
2024-05-09T08:49:11.236Z,19.50
2024-05-09T08:50:23.479Z,19.53
2024-05-09T08:51:13.199Z,19.55
2024-05-09T08:52:11.128Z,19.60
2024-05-09T08:53:11.112Z,19.67
2024-05-09T08:54:11.122Z,19.79
2024-05-09T08:55:11.207Z,19.91
2024-05-09T08:56:11.169Z,19.95
2024-05-09T08:57:11.066Z,20.01
2024-05-09T08:58:12.255Z,20.12
2024-05-09T08:59:11.070Z,20.21
2024-05-09T09:00:15.042Z,20.21
2024-05-09T09:01:13.369Z,20.27
2024-05-09T09:02:13.361Z,20.29
2024-05-09T09:03:12.123Z,20.27
2024-05-09T09:04:11.165Z,20.42
2024-05-09T09:05:13.162Z,20.50
2024-05-09T09:06:13.065Z,20.49
2024-05-09T09:07:11.127Z,20.41
2024-05-09T09:08:11.064Z,20.59
2024-05-09T09:09:11.076Z,20.69
2024-05-09T09:10:17.617Z,20.78
2024-05-09T09:11:13.158Z,20.68
2024-05-09T09:12:11.080Z,20.75
2024-05-09T09:13:12.103Z,20.89
2024-05-09T09:14:11.073Z,20.81
2024-05-09T09:15:11.066Z,20.97
2024-05-09T09:16:11.130Z,20.97
2024-05-09T09:17:17.083Z,21.10
2024-05-09T09:18:13.178Z,21.11
2024-05-09T09:19:11.279Z,21.21
2024-05-09T09:20:14.467Z,21.24
2024-05-09T09:21:13.113Z,21.27
2024-05-09T09:22:11.211Z,21.24
2024-05-09T09:23:11.068Z,21.24
2024-05-09T09:24:12.081Z,21.34
2024-05-09T09:25:11.113Z,21.45
2024-05-09T09:26:14.071Z,21.53
2024-05-09T09:27:13.075Z,21.59
2024-05-09T09:28:11.327Z,21.67
2024-05-09T09:29:11.071Z,21.65
2024-05-09T09:30:22.459Z,21.65
2024-05-09T09:31:13.522Z,21.71
2024-05-09T09:32:11.078Z,21.77
2024-05-09T09:33:11.510Z,21.80
2024-05-09T09:34:11.369Z,21.92
2024-05-09T09:35:11.068Z,21.98
2024-05-09T09:36:11.756Z,21.99
2024-05-09T09:37:11.234Z,21.95
2024-05-09T09:38:11.298Z,21.94
2024-05-09T09:39:11.079Z,21.92
2024-05-09T09:40:13.189Z,22.00
2024-05-09T09:41:11.159Z,22.12
2024-05-09T09:42:11.090Z,22.18
2024-05-09T09:43:17.153Z,22.30
2024-05-09T09:44:11.074Z,22.26
2024-05-09T09:45:11.077Z,22.24
2024-05-09T09:46:12.756Z,22.21
2024-05-09T09:47:11.120Z,22.24
2024-05-09T09:48:11.243Z,22.25
2024-05-09T09:49:11.267Z,22.17
2024-05-09T09:50:14.457Z,22.25
2024-05-09T09:51:13.073Z,22.23
2024-05-09T09:52:11.383Z,22.36
2024-05-09T09:53:11.075Z,22.38
2024-05-09T09:54:11.079Z,22.49
2024-05-09T09:55:11.217Z,22.53
2024-05-09T09:56:11.081Z,22.61
2024-05-09T09:57:11.082Z,22.59
2024-05-09T09:58:13.906Z,22.67
2024-05-09T09:59:12.078Z,22.70
2024-05-09T10:00:11.936Z,22.65
2024-05-09T10:01:11.178Z,22.76
2024-05-09T10:02:11.303Z,22.84
2024-05-09T10:03:11.092Z,22.89
2024-05-09T10:04:11.151Z,22.93
2024-05-09T10:05:11.285Z,22.98
2024-05-09T10:06:11.083Z,23.06
2024-05-09T10:07:11.228Z,23.17
2024-05-09T10:08:11.085Z,23.24
2024-05-09T10:09:13.092Z,23.28
2024-05-09T10:10:13.859Z,23.21
2024-05-09T10:11:13.286Z,23.14
2024-05-09T10:12:15.131Z,23.08
2024-05-09T10:13:11.216Z,23.09
2024-05-09T10:14:11.079Z,23.18
2024-05-09T10:15:11.090Z,23.12
2024-05-09T10:16:11.615Z,22.95
2024-05-09T10:17:11.108Z,22.92
2024-05-09T10:18:11.353Z,22.93
2024-05-09T10:19:11.178Z,23.01
2024-05-09T10:20:18.229Z,23.00
2024-05-09T10:21:19.244Z,22.97
2024-05-09T10:22:12.147Z,23.07
2024-05-09T10:23:19.088Z,23.11
2024-05-09T10:24:12.085Z,23.21
2024-05-09T10:25:11.145Z,23.28
2024-05-09T10:26:11.092Z,23.23
2024-05-09T10:27:11.083Z,23.29
2024-05-09T10:28:12.242Z,23.26
2024-05-09T10:29:14.130Z,23.45
2024-05-09T10:30:14.752Z,23.52
2024-05-09T10:31:13.540Z,23.61
2024-05-09T10:32:11.108Z,23.44
2024-05-09T10:33:12.298Z,23.60
2024-05-09T10:34:20.736Z,23.70
2024-05-09T10:35:11.186Z,23.69
2024-05-09T10:36:19.106Z,23.61
2024-05-09T10:37:11.131Z,23.69
2024-05-09T10:38:11.085Z,23.73
2024-05-09T10:39:11.094Z,23.83
2024-05-09T10:40:20.265Z,23.77
2024-05-09T10:41:13.241Z,23.66
2024-05-09T10:42:11.093Z,23.76
2024-05-09T10:43:15.224Z,23.76
2024-05-09T10:44:14.088Z,23.79
2024-05-09T10:45:11.093Z,23.73
2024-05-09T10:46:11.485Z,23.71
2024-05-09T10:47:11.116Z,23.71
2024-05-09T10:48:11.217Z,23.74
2024-05-09T10:49:11.147Z,23.64
2024-05-09T10:50:18.539Z,23.80
2024-05-09T10:51:13.249Z,23.89
2024-05-09T10:52:11.162Z,23.97
2024-05-09T10:53:11.100Z,24.05
2024-05-09T10:54:11.098Z,24.14
2024-05-09T10:55:11.134Z,24.20
2024-05-09T10:56:11.098Z,24.07
2024-05-09T10:57:11.109Z,23.92
2024-05-09T10:58:17.203Z,24.01
2024-05-09T10:59:12.093Z,24.10
2024-05-09T11:00:19.018Z,24.16
2024-05-09T11:01:14.075Z,24.11
2024-05-09T11:02:11.353Z,24.15
2024-05-09T11:03:11.139Z,24.02
2024-05-09T11:04:11.180Z,24.16
2024-05-09T11:05:11.266Z,24.12
2024-05-09T11:06:11.123Z,24.18
2024-05-09T11:07:11.136Z,24.14
2024-05-09T11:08:11.097Z,24.11
2024-05-09T11:09:11.094Z,24.11
2024-05-09T11:10:14.537Z,24.13
2024-05-09T11:11:11.092Z,24.22
2024-05-09T11:12:11.118Z,24.20
2024-05-09T11:13:11.125Z,24.20
2024-05-09T11:14:15.095Z,24.23
2024-05-09T11:15:11.098Z,24.18
2024-05-09T11:16:17.514Z,24.15
2024-05-09T11:17:11.128Z,24.18
2024-05-09T11:18:21.673Z,24.16
2024-05-09T11:19:15.440Z,24.22
2024-05-09T11:20:17.061Z,24.27
2024-05-09T11:21:17.212Z,24.38
2024-05-09T11:22:11.126Z,24.36
2024-05-09T11:23:11.096Z,24.43
2024-05-09T11:24:11.691Z,24.37
2024-05-09T11:25:11.218Z,24.44
2024-05-09T11:26:11.227Z,24.48
2024-05-09T11:27:11.101Z,24.53
2024-05-09T11:28:12.202Z,24.54
2024-05-09T11:29:11.122Z,24.53
2024-05-09T11:30:24.211Z,24.48
2024-05-09T11:31:13.466Z,24.48
2024-05-09T11:32:11.153Z,24.57
2024-05-09T11:33:12.129Z,24.56
2024-05-09T11:34:11.129Z,24.66
2024-05-09T11:35:11.100Z,24.72
2024-05-09T11:36:11.098Z,24.66
2024-05-09T11:37:11.221Z,24.58
2024-05-09T11:38:11.107Z,24.58
2024-05-09T11:39:11.102Z,24.60
2024-05-09T11:40:13.883Z,24.58
2024-05-09T11:41:17.092Z,24.53
2024-05-09T11:42:11.100Z,24.47
2024-05-09T11:43:11.161Z,24.39
2024-05-09T11:44:11.100Z,24.55
2024-05-09T11:45:11.118Z,24.64
2024-05-09T11:46:11.251Z,24.69
2024-05-09T11:47:11.209Z,24.67
2024-05-09T11:48:11.170Z,24.73
2024-05-09T11:49:11.342Z,24.76
2024-05-09T11:50:18.995Z,24.77
2024-05-09T11:51:13.172Z,24.79
2024-05-09T11:52:11.195Z,24.81
2024-05-09T11:53:11.103Z,24.71
2024-05-09T11:54:11.105Z,24.76
2024-05-09T11:55:11.265Z,24.48
2024-05-09T11:56:11.103Z,24.54
2024-05-09T11:57:11.068Z,24.53
2024-05-09T11:58:11.269Z,24.58
2024-05-09T11:59:11.059Z,24.53
2024-05-09T12:00:15.014Z,24.59
2024-05-09T12:01:13.391Z,24.60
2024-05-09T12:02:11.413Z,24.53
2024-05-09T12:03:11.129Z,24.50
2024-05-09T12:04:11.311Z,24.46
2024-05-09T12:05:11.184Z,24.55
2024-05-09T12:06:11.092Z,24.61
2024-05-09T12:07:12.876Z,24.60
2024-05-09T12:08:11.070Z,24.56
2024-05-09T12:09:11.066Z,24.55
2024-05-09T12:10:16.597Z,24.62
2024-05-09T12:11:13.446Z,24.17
2024-05-09T12:12:11.068Z,24.30
2024-05-09T12:13:11.107Z,24.41
2024-05-09T12:14:11.080Z,24.41
2024-05-09T12:15:11.067Z,24.40
2024-05-09T12:16:11.159Z,24.52
2024-05-09T12:17:11.095Z,24.71
2024-05-09T12:18:11.103Z,24.78
2024-05-09T12:19:11.236Z,24.88
2024-05-09T12:20:21.003Z,24.79
2024-05-09T12:21:13.283Z,24.79
2024-05-09T12:22:11.152Z,24.72
2024-05-09T12:23:11.206Z,24.74
2024-05-09T12:24:12.100Z,24.87
2024-05-09T12:25:11.115Z,24.83
2024-05-09T12:26:11.082Z,24.61
2024-05-09T12:27:11.071Z,24.73
2024-05-09T12:28:11.143Z,24.78
2024-05-09T12:29:11.074Z,24.82
2024-05-09T12:30:14.249Z,24.86
2024-05-09T12:31:13.595Z,24.87
2024-05-09T12:32:11.147Z,24.85
2024-05-09T12:33:12.341Z,24.93
2024-05-09T12:34:11.182Z,25.06
2024-05-09T12:35:11.084Z,25.15
2024-05-09T12:36:11.081Z,25.05
2024-05-09T12:37:11.263Z,24.80
2024-05-09T12:38:11.072Z,24.83
2024-05-09T12:39:11.094Z,24.79
2024-05-09T12:40:18.739Z,24.82
2024-05-09T12:41:13.260Z,24.86
2024-05-09T12:42:14.616Z,24.96
2024-05-09T12:43:13.406Z,24.92
2024-05-09T12:44:11.078Z,25.04
2024-05-09T12:45:11.076Z,25.09
2024-05-09T12:46:11.113Z,25.10
2024-05-09T12:47:11.086Z,25.07
2024-05-09T12:48:12.041Z,25.07
2024-05-09T12:49:12.209Z,24.95
2024-05-09T12:50:18.710Z,24.91
2024-05-09T12:51:13.487Z,24.93
2024-05-09T12:52:11.329Z,24.89
2024-05-09T12:53:11.129Z,24.82
2024-05-09T12:54:11.084Z,24.84
2024-05-09T12:55:11.182Z,24.89
2024-05-09T12:56:11.134Z,24.91
2024-05-09T12:57:11.101Z,24.96
2024-05-09T12:58:11.339Z,24.98